Time;durP1;ratioP1;P1;durP2;ratioP2;P2;SDS_P1;SDS_P2;PMS_P1;PMS_P2;Temp;Humidity;BMP_temperature;BMP_pressure;BME280_temperature;BME280_humidity;BME280_pressure;Samples;Min_cycle;Max_cycle;Signal;HPM_P1;HPM_P2
2023/08/10 00:01:50;;;;;;;6.72;2.15;;;;;;;16.31;100.00;102155.56;5107237;28;20519;-60
2023/08/10 00:04:15;;;;;;;4.72;2.30;;;;;;;16.35;100.00;102151.91;5109153;28;20027;-55
2023/08/10 00:06:41;;;;;;;6.88;2.05;;;;;;;16.37;100.00;102151.81;5109319;28;20110;-61
2023/08/10 00:09:08;;;;;;;6.57;2.00;;;;;;;16.33;100.00;102153.75;5108020;28;20051;-62
2023/08/10 00:11:34;;;;;;;9.00;2.22;;;;;;;16.35;100.00;102157.22;5096301;28;20039;-59
2023/08/10 00:13:59;;;;;;;9.05;2.20;;;;;;;16.32;100.00;102152.00;5109729;27;20032;-60
2023/08/10 00:16:25;;;;;;;6.55;2.03;;;;;;;16.23;100.00;102157.66;5100363;28;20466;-62
2023/08/10 00:18:50;;;;;;;4.68;1.85;;;;;;;16.20;100.00;102160.44;5104415;28;20047;-59
2023/08/10 00:21:15;;;;;;;5.68;2.00;;;;;;;16.17;100.00;102159.63;5109573;28;20028;-60
2023/08/10 00:23:41;;;;;;;7.07;2.22;;;;;;;16.08;100.00;102157.31;5105675;28;20070;-65
2023/08/10 00:26:06;;;;;;;7.93;2.38;;;;;;;15.98;100.00;102148.78;5089097;28;20052;-64
2023/08/10 00:28:33;;;;;;;6.15;2.03;;;;;;;15.92;100.00;102144.53;5101239;28;20028;-61
2023/08/10 00:30:58;;;;;;;5.97;2.47;;;;;;;15.87;100.00;102146.47;5097478;28;20012;-62
2023/08/10 00:33:24;;;;;;;6.15;2.17;;;;;;;15.80;100.00;102150.28;5109828;27;20034;-58
2023/08/10 00:35:49;;;;;;;5.00;2.13;;;;;;;15.80;100.00;102150.28;5108653;28;20020;-57
2023/08/10 00:38:15;;;;;;;5.28;2.22;;;;;;;15.71;100.00;102155.94;5094782;28;20030;-61
2023/08/10 00:40:40;;;;;;;6.70;2.10;;;;;;;15.61;100.00;102153.59;5087999;28;20024;-57
2023/08/10 00:43:05;;;;;;;4.20;2.00;;;;;;;15.50;100.00;102153.94;5085006;28;20036;-64
2023/08/10 00:45:31;;;;;;;6.30;2.10;;;;;;;15.39;100.00;102159.59;5087886;28;20062;-61
2023/08/10 00:47:57;;;;;;;4.63;2.15;;;;;;;15.33;100.00;102145.66;5087029;28;20028;-58
2023/08/10 00:50:24;;;;;;;3.75;2.42;;;;;;;15.27;100.00;102152.06;5120056;27;20034;-53
2023/08/10 00:52:49;;;;;;;4.05;2.63;;;;;;;15.22;100.00;102159.28;5087830;28;20031;-63
2023/08/10 00:55:14;;;;;;;8.30;2.97;;;;;;;15.15;100.00;102159.47;5088358;28;20016;-50
2023/08/10 00:57:40;;;;;;;9.50;3.00;;;;;;;15.10;100.00;102160.56;5087130;28;20047;-57
2023/08/10 01:00:10;;;;;;;6.82;2.88;;;;;;;15.07;100.00;102161.53;5087419;28;20107;-52
2023/08/10 01:02:39;;;;;;;7.75;3.17;;;;;;;15.03;100.00;102163.41;5067653;28;20051;-61
2023/08/10 01:05:05;;;;;;;;;;;;;;;15.02;100.00;102160.81;5066843;28;20032;-60
2023/08/10 01:07:46;;;;;;;9.93;2.97;;;;;;;15.00;100.00;102158.22;5082822;28;19944;-58
2023/08/10 01:10:36;;;;;;;6.57;3.42;;;;;;;15.03;100.00;102155.44;5128809;22;20053;-57
2023/08/10 01:13:06;;;;;;;5.85;3.17;;;;;;;15.03;100.00;102154.59;5032934;28;20064;-58
2023/08/10 01:15:44;;;;;;;4.97;3.45;;;;;;;15.00;100.00;102154.69;5045744;28;20029;-61
2023/08/10 01:18:13;;;;;;;7.97;2.77;;;;;;;14.97;100.00;102158.31;5047463;28;20087;-51
2023/08/10 01:20:39;;;;;;;5.55;2.75;;;;;;;14.96;100.00;102155.69;5045416;28;20271;-59
2023/08/10 01:23:17;;;;;;;7.82;3.30;;;;;;;15.03;100.00;102160.75;5045113;28;20037;-61
2023/08/10 01:25:42;;;;;;;5.85;2.90;;;;;;;15.05;100.00;102160.69;5046746;28;20035;-61
2023/08/10 01:28:10;;;;;;;8.85;3.33;;;;;;;15.02;100.00;102155.50;5044995;28;20029;-60
2023/08/10 01:30:35;;;;;;;6.20;3.38;;;;;;;15.01;100.00;102162.59;5046004;28;20383;-61
2023/08/10 01:33:01;;;;;;;9.65;3.25;;;;;;;14.97;100.00;102155.66;5046269;28;20036;-55
2023/08/10 01:35:26;;;;;;;6.93;2.95;;;;;;;14.96;100.00;102145.94;5046661;28;20130;-61
2023/08/10 01:37:52;;;;;;;8.30;3.15;;;;;;;14.91;100.00;102150.53;5047141;28;20618;-62
2023/08/10 01:40:18;;;;;;;5.53;2.67;;;;;;;14.87;100.00;102149.75;5047218;28;20037;-58
2023/08/10 01:42:44;;;;;;;5.32;2.88;;;;;;;14.82;100.00;102149.03;5056697;28;20055;-61
2023/08/10 01:45:10;;;;;;;6.03;3.47;;;;;;;14.84;100.00;102147.19;5066245;28;20028;-61
2023/08/10 01:47:52;;;;;;;7.18;3.15;;;;;;;14.86;100.00;102147.13;5066660;28;20154;-61
2023/08/10 01:50:19;;;;;;;9.30;3.17;;;;;;;14.74;100.00;102154.53;5065982;28;20020;-57
2023/08/10 01:52:50;;;;;;;5.55;3.17;;;;;;;14.68;100.00;102141.47;5061404;28;20063;-62
2023/08/10 01:55:16;;;;;;;7.70;3.30;;;;;;;14.65;100.00;102126.50;5047281;28;20037;-61
2023/08/10 01:57:42;;;;;;;6.32;3.17;;;;;;;14.62;100.00;102129.25;5043910;28;20029;-62
2023/08/10 02:00:07;;;;;;;5.95;3.25;;;;;;;14.63;100.00;102130.13;5047539;28;20029;-58
2023/08/10 02:02:34;;;;;;;6.72;2.55;;;;;;;14.58;100.00;102132.94;5047167;28;20026;-61
2023/08/10 02:04:59;;;;;;;5.75;2.70;;;;;;;14.56;100.00;102149.78;5047494;28;20044;-61
2023/08/10 02:07:25;;;;;;;5.43;2.83;;;;;;;14.52;100.00;102138.41;5049530;28;20025;-61
2023/08/10 02:09:50;;;;;;;5.13;2.70;;;;;;;14.50;100.00;102140.22;5051211;28;20048;-61
2023/08/10 02:12:16;;;;;;;5.88;2.78;;;;;;;14.50;100.00;102140.22;5049489;28;20044;-55
2023/08/10 02:14:41;;;;;;;6.05;2.92;;;;;;;14.50;100.00;102137.56;5049591;28;20892;-59
2023/08/10 02:17:06;;;;;;;6.28;3.15;;;;;;;14.49;100.00;102130.53;5050829;28;20021;-59
2023/08/10 02:19:32;;;;;;;6.03;3.40;;;;;;;14.49;100.00;102135.84;5050201;28;20027;-58
2023/08/10 02:21:57;;;;;;;4.68;3.10;;;;;;;14.46;100.00;102144.78;5050519;28;20414;-61
2023/08/10 02:24:23;;;;;;;4.53;3.10;;;;;;;14.45;100.00;102143.00;5048582;28;20039;-58
2023/08/10 02:26:49;;;;;;;7.72;3.38;;;;;;;14.44;100.00;102146.59;5049723;28;20044;-58
2023/08/10 02:29:14;;;;;;;5.82;3.60;;;;;;;14.43;100.00;102146.63;5049436;28;20545;-60
2023/08/10 02:31:39;;;;;;;10.15;3.70;;;;;;;14.41;100.00;102154.63;5049736;28;20035;-59
2023/08/10 02:34:05;;;;;;;4.72;3.15;;;;;;;14.40;100.00;102153.78;5049681;28;20499;-58
2023/08/10 02:36:30;;;;;;;7.45;3.38;;;;;;;14.45;100.00;102161.56;5048265;28;20029;-62
2023/08/10 02:38:55;;;;;;;5.50;3.75;;;;;;;14.45;100.00;102158.06;5050183;28;20729;-61
2023/08/10 02:41:21;;;;;;;5.60;3.55;;;;;;;14.44;100.00;102157.19;5048549;28;20032;-57
2023/08/10 02:43:46;;;;;;;7.97;3.08;;;;;;;14.44;100.00;102158.97;5049729;28;20059;-62
2023/08/10 02:46:11;;;;;;;5.38;3.15;;;;;;;14.43;100.00;102162.53;5047600;28;20029;-58
2023/08/10 02:48:37;;;;;;;6.43;3.65;;;;;;;14.44;100.00;102156.31;5048384;28;20379;-60
2023/08/10 02:51:02;;;;;;;4.88;3.20;;;;;;;14.42;100.00;102159.00;5048834;28;20116;-56
2023/08/10 02:53:27;;;;;;;5.30;3.40;;;;;;;14.40;100.00;102167.03;5048429;28;20161;-57
2023/08/10 02:55:53;;;;;;;7.22;3.65;;;;;;;14.37;100.00;102161.81;5048739;28;20024;-57
2023/08/10 02:58:20;;;;;;;5.20;3.67;;;;;;;14.35;100.00;102158.34;5048592;28;20060;-62
2023/08/10 03:00:46;;;;;;;7.10;3.80;;;;;;;14.35;100.00;102163.63;5048075;28;20501;-56
2023/08/10 03:03:11;;;;;;;7.35;4.20;;;;;;;14.33;100.00;102164.59;5049246;28;20029;-58
2023/08/10 03:05:36;;;;;;;7.30;4.00;;;;;;;14.30;100.00;102168.19;5046891;28;20108;-53
2023/08/10 03:08:02;;;;;;;7.13;4.13;;;;;;;14.28;100.00;102164.72;5029500;28;20072;-61
2023/08/10 03:10:27;;;;;;;8.55;4.32;;;;;;;14.27;100.00;102165.66;5028845;28;20042;-50
2023/08/10 03:12:52;;;;;;;12.18;5.35;;;;;;;14.31;100.00;102166.41;5028811;28;20040;-49
2023/08/10 03:15:18;;;;;;;10.23;4.43;;;;;;;14.37;100.00;102158.28;5029930;28;20029;-62
2023/08/10 03:17:44;;;;;;;6.43;4.70;;;;;;;14.44;100.00;102159.84;5038298;28;20118;-61
2023/08/10 03:20:14;;;;;;;9.60;4.53;;;;;;;14.53;100.00;102156.94;5049389;28;20039;-56
2023/08/10 03:22:40;;;;;;;8.95;4.97;;;;;;;14.59;100.00;102160.28;5048636;28;20174;-61
2023/08/10 03:25:05;;;;;;;8.57;4.93;;;;;;;14.64;100.00;102153.97;5049284;28;20025;-57
2023/08/10 03:27:31;;;;;;;8.40;4.80;;;;;;;14.70;100.00;102166.16;5047226;28;20036;-61
2023/08/10 03:29:56;;;;;;;9.73;5.28;;;;;;;14.75;100.00;102166.03;5049317;28;20036;-62
2023/08/10 03:32:21;;;;;;;13.45;5.22;;;;;;;14.85;100.00;102156.91;5048579;28;20474;-56
2023/08/10 03:34:47;;;;;;;9.35;5.22;;;;;;;14.89;100.00;102153.25;5042397;28;20103;-61
2023/08/10 03:37:12;;;;;;;7.55;4.75;;;;;;;14.94;100.00;102155.75;5028997;28;20051;-62
2023/08/10 03:39:37;;;;;;;6.88;4.57;;;;;;;15.02;100.00;102152.88;5036683;28;20025;-64
2023/08/10 03:42:03;;;;;;;6.88;4.60;;;;;;;15.02;100.00;102152.88;5047957;28;20414;-58
2023/08/10 03:44:28;;;;;;;8.38;4.53;;;;;;;15.07;100.00;102150.91;5047375;28;20108;-56
2023/08/10 03:46:53;;;;;;;12.65;4.93;;;;;;;15.04;100.00;102156.31;5048573;28;20067;-60
2023/08/10 03:49:19;;;;;;;4.45;4.03;;;;;;;15.04;100.00;102156.31;5046681;28;20071;-61
2023/08/10 03:51:45;;;;;;;7.63;4.28;;;;;;;15.01;100.00;102154.63;5052549;28;20391;-50
2023/08/10 03:54:10;;;;;;;9.52;4.50;;;;;;;15.02;100.00;102151.06;5066806;28;20086;-61
2023/08/10 03:56:37;;;;;;;9.15;4.80;;;;;;;15.00;100.00;102160.00;5067301;28;20016;-61
2023/08/10 03:59:04;;;;;;;8.63;5.15;;;;;;;15.02;100.00;102158.16;5068650;28;20021;-52
2023/08/10 04:01:30;;;;;;;8.77;4.63;;;;;;;15.08;100.00;102157.09;5067218;28;20024;-62
2023/08/10 04:03:55;;;;;;;8.98;4.50;;;;;;;15.14;100.00;102155.09;5067886;28;20466;-56
2023/08/10 04:06:22;;;;;;;9.95;4.50;;;;;;;15.22;100.00;102153.97;5068345;28;20120;-61
2023/08/10 04:08:48;;;;;;;6.70;4.90;;;;;;;15.25;100.00;102160.06;5067942;28;20008;-55
2023/08/10 04:11:13;;;;;;;10.30;4.80;;;;;;;15.28;100.00;102164.41;5046340;28;20063;-62
2023/08/10 04:13:38;;;;;;;7.38;5.07;;;;;;;15.30;100.00;102159.94;5062971;28;20055;-62
2023/08/10 04:16:04;;;;;;;7.60;5.00;;;;;;;15.31;100.00;102169.63;5068995;28;20463;-59
2023/08/10 04:18:30;;;;;;;9.80;4.95;;;;;;;15.35;100.00;102171.25;5068423;28;20062;-63
2023/08/10 04:20:55;;;;;;;6.38;4.15;;;;;;;15.39;100.00;102172.03;5067989;28;20034;-63
2023/08/10 04:23:21;;;;;;;7.97;3.83;;;;;;;15.39;100.00;102169.38;5060539;28;20032;-51
2023/08/10 04:25:46;;;;;;;8.68;4.43;;;;;;;15.44;100.00;102171.88;5047314;28;20025;-61
2023/08/10 04:28:12;;;;;;;7.28;5.18;;;;;;;15.46;100.00;102170.03;5046155;28;20029;-61
2023/08/10 04:30:38;;;;;;;6.57;4.85;;;;;;;15.47;100.00;102171.78;5061921;28;20115;-62
2023/08/10 04:33:04;;;;;;;7.40;4.45;;;;;;;15.52;100.00;102172.47;5069113;28;20406;-61
2023/08/10 04:35:29;;;;;;;7.10;4.40;;;;;;;15.54;100.00;102168.00;5054950;28;20025;-59
2023/08/10 04:37:54;;;;;;;6.72;4.35;;;;;;;15.54;100.00;102175.97;5068189;28;20016;-59
2023/08/10 04:40:20;;;;;;;7.80;4.70;;;;;;;15.56;100.00;102175.91;5066417;28;20066;-63
2023/08/10 04:42:46;;;;;;;8.85;4.82;;;;;;;15.59;100.00;102173.16;5066519;28;20021;-60
2023/08/10 04:45:11;;;;;;;14.13;4.93;;;;;;;15.62;100.00;102163.28;5067036;28;20386;-62
2023/08/10 04:47:37;;;;;;;13.85;4.97;;;;;;;15.66;100.00;102167.56;5067334;28;20107;-64
2023/08/10 04:50:03;;;;;;;9.15;4.53;;;;;;;15.72;100.00;102165.63;5066221;28;20016;-59
2023/08/10 04:52:29;;;;;;;8.00;4.93;;;;;;;15.74;100.00;102161.13;5067188;28;20024;-63
2023/08/10 04:54:54;;;;;;;9.10;4.90;;;;;;;15.80;100.00;102166.22;5066607;28;20044;-60
2023/08/10 04:57:19;;;;;;;7.80;5.38;;;;;;;15.82;100.00;102161.72;5059492;28;20104;-63
2023/08/10 04:59:46;;;;;;;7.35;4.55;;;;;;;15.86;100.00;102160.69;5059020;28;20456;-60
2023/08/10 05:02:11;;;;;;;6.57;4.28;;;;;;;15.91;100.00;102158.75;5066675;28;20025;-59
2023/08/10 05:04:36;;;;;;;6.07;5.35;;;;;;;15.96;100.00;102155.97;5065493;28;20052;-61
2023/08/10 05:07:02;;;;;;;5.13;4.35;;;;;;;16.05;100.00;102154.75;5066659;28;20029;-60
2023/08/10 05:09:27;;;;;;;7.40;4.47;;;;;;;16.10;100.00;102149.28;5066090;28;20051;-56
2023/08/10 05:11:53;;;;;;;7.15;4.70;;;;;;;16.12;100.00;102153.63;5065781;28;20390;-55
2023/08/10 05:14:18;;;;;;;11.35;5.13;;;;;;;16.21;100.00;102149.75;5066615;28;20024;-60
2023/08/10 05:16:45;;;;;;;6.70;4.45;;;;;;;16.35;100.00;102151.91;5065900;28;20482;-62
2023/08/10 05:19:10;;;;;;;6.55;4.05;;;;;;;16.39;100.00;102147.31;5066064;28;20044;-61
2023/08/10 05:21:35;;;;;;;7.07;4.78;;;;;;;16.42;100.00;102148.09;5052785;28;20063;-60
2023/08/10 05:24:01;;;;;;;7.10;4.78;;;;;;;16.41;100.00;102151.66;5066093;28;20052;-62
2023/08/10 05:26:27;;;;;;;9.00;4.15;;;;;;;16.47;100.00;102153.22;5064645;28;20074;-62
2023/08/10 05:28:52;;;;;;;8.55;4.75;;;;;;;16.52;100.00;102147.72;5066600;28;20024;-54
2023/08/10 05:31:18;;;;;;;9.90;4.85;;;;;;;16.63;100.00;102149.97;5066740;28;20398;-61
2023/08/10 05:33:43;;;;;;;9.05;4.78;;;;;;;16.66;100.00;102145.41;5065539;28;20051;-61
2023/08/10 05:36:09;;;;;;;11.18;4.70;;;;;;;16.69;100.00;102155.06;5066418;28;20024;-53
2023/08/10 05:38:34;;;;;;;6.07;4.13;;;;;;;16.79;100.00;102144.91;5065881;28;20374;-60
2023/08/10 05:40:59;;;;;;;5.72;4.95;;;;;;;16.83;100.00;102143.88;5065721;28;20024;-53
2023/08/10 05:43:25;;;;;;;9.63;4.13;;;;;;;16.86;100.00;102153.53;5065433;28;20120;-58
2023/08/10 05:45:50;;;;;;;8.98;5.00;;;;;;;16.87;100.00;102152.59;5066734;28;20108;-57
2023/08/10 05:48:16;;;;;;;8.05;4.65;;;;;;;16.89;100.00;102146.28;5066300;28;20889;-59
2023/08/10 05:50:41;;;;;;;9.60;4.75;;;;;;;16.91;100.00;102147.09;5065228;28;20021;-62
2023/08/10 05:53:07;;;;;;;9.52;4.70;;;;;;;17.03;100.00;102148.38;5066442;28;20031;-59
2023/08/10 05:55:33;;;;;;;13.20;5.25;;;;;;;17.12;100.00;102154.28;5064906;28;20023;-58
2023/08/10 05:57:59;;;;;;;7.72;5.07;;;;;;;17.16;100.00;102156.78;5066177;28;20047;-50
2023/08/10 06:00:24;;;;;;;7.95;4.68;;;;;;;17.18;100.00;102156.72;5066010;28;20471;-61
2023/08/10 06:02:51;;;;;;;8.23;4.43;;;;;;;17.20;100.00;102148.66;5066556;28;20025;-60
2023/08/10 06:05:16;;;;;;;8.07;4.72;;;;;;;17.24;100.00;102139.59;5065444;28;20054;-59
2023/08/10 06:07:42;;;;;;;7.53;4.90;;;;;;;17.29;100.00;102143.84;5065955;28;20799;-59
2023/08/10 06:10:07;;;;;;;9.68;5.35;;;;;;;17.37;100.00;102146.16;5063835;28;20074;-60
2023/08/10 06:12:33;;;;;;;8.73;4.72;;;;;;;17.39;100.00;102151.41;5064338;28;20028;-58
2023/08/10 06:14:59;;;;;;;9.18;5.15;;;;;;;17.43;100.00;102153.88;5064437;28;20021;-62
2023/08/10 06:17:25;;;;;;;6.38;4.50;;;;;;;17.52;100.00;102151.78;5065456;28;20082;-65
2023/08/10 06:19:51;;;;;;;9.35;4.72;;;;;;;17.60;100.00;102148.75;5055920;28;20013;-62
2023/08/10 06:22:17;;;;;;;6.93;4.68;;;;;;;17.58;100.00;102148.84;5061344;28;20029;-63
2023/08/10 06:24:43;;;;;;;10.90;5.30;;;;;;;17.62;100.00;102150.47;5065626;28;20032;-61
2023/08/10 06:27:08;;;;;;;7.00;4.72;;;;;;;17.65;100.00;102155.66;5064350;28;20067;-58
2023/08/10 06:29:35;;;;;;;6.15;5.13;;;;;;;17.75;100.00;102155.25;5065833;28;20151;-65
2023/08/10 06:32:02;;;;;;;8.35;4.57;;;;;;;17.79;100.00;102151.53;5064816;28;20567;-63
2023/08/10 06:34:27;;;;;;;7.00;4.30;;;;;;;17.84;100.00;102149.50;5062402;28;20107;-65
2023/08/10 06:36:53;;;;;;;12.10;4.82;;;;;;;17.76;100.00;102151.66;5065628;28;20095;-63
2023/08/10 06:39:19;;;;;;;7.70;4.35;;;;;;;17.89;100.00;102151.97;5065849;28;20028;-54
2023/08/10 06:41:44;;;;;;;8.60;5.22;;;;;;;17.98;100.00;102151.56;5064611;28;20025;-63
2023/08/10 06:44:10;;;;;;;7.57;4.35;;;;;;;18.16;100.00;102147.25;5065423;28;20099;-65
2023/08/10 06:46:35;;;;;;;9.13;4.63;;;;;;;18.19;100.00;102147.09;5065894;28;20055;-63
2023/08/10 06:49:01;;;;;;;9.63;4.55;;;;;;;18.31;100.00;102150.16;5064731;28;20547;-62
2023/08/10 06:51:26;;;;;;;8.73;4.60;;;;;;;18.56;100.00;102154.34;5066879;28;20107;-65
2023/08/10 06:53:51;;;;;;;7.00;4.00;;;;;;;18.63;100.00;102158.44;5064323;28;20479;-65
2023/08/10 06:56:17;;;;;;;7.22;4.20;;;;;;;18.83;100.00;102151.28;5058808;28;20063;-55
2023/08/10 06:58:42;;;;;;;8.98;4.15;;;;;;;18.88;100.00;102156.41;5068937;28;20025;-62
2023/08/10 07:01:08;;;;;;;5.53;3.55;;;;;;;19.06;100.00;102162.66;5063733;28;20021;-64
2023/08/10 07:03:35;;;;;;;5.28;2.97;;;;;;;19.19;100.00;102155.81;5068400;28;20024;-65
2023/08/10 07:06:00;;;;;;;5.80;3.33;;;;;;;19.23;100.00;102161.84;5067866;28;20047;-60
2023/08/10 07:08:26;;;;;;;8.75;3.58;;;;;;;19.29;100.00;102156.19;5068662;28;20024;-59
2023/08/10 07:10:51;;;;;;;6.32;3.47;;;;;;;19.42;100.00;102156.44;5056246;28;20037;-63
2023/08/10 07:13:17;;;;;;;4.45;3.10;;;;;;;19.38;100.00;102154.88;5059174;28;20114;-58
2023/08/10 07:15:44;;;;;;;7.03;3.13;;;;;;;19.47;100.00;102158.03;5068506;28;20024;-64
2023/08/10 07:18:10;;;;;;;5.82;3.13;;;;;;;19.70;100.00;102157.72;5068424;28;20031;-64
2023/08/10 07:20:35;;;;;;;4.88;3.15;;;;;;;19.85;100.00;102157.84;5057925;28;20024;-64
2023/08/10 07:23:01;;;;;;;6.13;3.63;;;;;;;19.89;100.00;102164.75;5049130;28;20046;-64
2023/08/10 07:25:28;;;;;;;5.18;2.80;;;;;;;20.06;100.00;102165.72;5048205;28;20032;-63
2023/08/10 07:27:53;;;;;;;6.72;2.63;;;;;;;20.05;100.00;102159.50;5069584;28;20017;-65
2023/08/10 07:30:18;;;;;;;12.07;2.90;;;;;;;20.18;100.00;102158.84;5068643;28;20102;-63
2023/08/10 07:32:44;;;;;;;6.00;2.40;;;;;;;20.35;100.00;102160.63;5068348;28;20043;-64
2023/08/10 07:35:10;;;;;;;4.32;2.08;;;;;;;20.42;100.00;102158.44;5068871;28;20529;-64
2023/08/10 07:37:36;;;;;;;5.25;2.60;;;;;;;20.23;100.00;102171.97;5056880;28;20061;-60
2023/08/10 07:40:05;;;;;;;4.80;2.40;;;;;;;20.49;100.00;102167.00;5049074;28;20025;-65
2023/08/10 07:42:30;;;;;;;4.85;1.85;;;;;;;20.57;100.00;102164.78;5067888;28;20032;-60
2023/08/10 07:44:55;;;;;;;5.25;2.50;;;;;;;20.62;99.74;102162.69;5067015;28;20028;-64
2023/08/10 07:47:21;;;;;;;9.80;2.20;;;;;;;20.78;96.81;102161.84;5066114;28;20058;-66
2023/08/10 07:49:46;;;;;;;3.25;2.08;;;;;;;20.86;96.84;102170.28;5047681;28;20021;-64
2023/08/10 07:52:12;;;;;;;4.43;2.05;;;;;;;20.93;97.61;102181.56;5047811;28;20033;-56
2023/08/10 07:54:37;;;;;;;8.13;2.20;;;;;;;21.04;98.70;102178.28;5047402;28;20021;-63
2023/08/10 07:57:03;;;;;;;5.75;2.38;;;;;;;21.16;97.36;102180.22;5046624;28;20040;-64
2023/08/10 07:59:28;;;;;;;9.15;2.40;;;;;;;21.16;95.66;102177.56;5046467;28;20111;-61
2023/08/10 08:01:54;;;;;;;5.78;2.30;;;;;;;21.29;94.45;102176.84;5047776;28;20417;-62
2023/08/10 08:04:19;;;;;;;3.30;2.50;;;;;;;21.39;93.40;102175.34;5046673;28;20040;-64
2023/08/10 08:06:45;;;;;;;6.85;2.22;;;;;;;21.22;93.21;102179.00;5047060;28;20383;-66
2023/08/10 08:09:12;;;;;;;3.33;2.28;;;;;;;21.38;92.40;102175.44;5047278;28;20028;-63
2023/08/10 08:11:37;;;;;;;4.13;2.13;;;;;;;21.44;91.61;102189.38;5045559;28;20237;-61
2023/08/10 08:14:03;;;;;;;3.97;2.30;;;;;;;21.36;92.45;102178.22;5047769;28;20557;-63
2023/08/10 08:16:28;;;;;;;3.25;2.00;;;;;;;21.44;91.79;102186.69;5046602;28;20023;-65
2023/08/10 08:18:55;;;;;;;6.50;2.45;;;;;;;21.46;90.92;102189.25;5047065;28;20021;-67
2023/08/10 08:21:24;;;;;;;5.05;2.50;;;;;;;21.48;90.05;102192.72;5048011;28;20048;-64
2023/08/10 08:23:50;;;;;;;4.80;2.10;;;;;;;21.51;90.77;102197.03;5048674;28;20056;-58
2023/08/10 08:26:17;;;;;;;8.40;2.92;;;;;;;21.42;91.59;102190.38;5045919;28;20033;-66
2023/08/10 08:28:43;;;;;;;2.80;2.20;;;;;;;21.56;90.85;102195.81;5047374;28;20036;-65
2023/08/10 08:31:08;;;;;;;5.70;2.25;;;;;;;21.76;89.27;102192.91;5047108;28;20055;-61
2023/08/10 08:33:35;;;;;;;6.20;2.67;;;;;;;21.56;90.19;102189.56;5046216;28;20029;-66
2023/08/10 08:36:00;;;;;;;4.85;2.90;;;;;;;21.68;88.85;102188.84;5047320;28;20593;-64
2023/08/10 08:38:27;;;;;;;7.65;2.75;;;;;;;21.53;91.79;102189.75;5047077;28;20063;-69
2023/08/10 08:40:54;;;;;;;7.25;3.45;;;;;;;21.74;90.15;102189.44;5046843;28;20483;-58
2023/08/10 08:43:20;;;;;;;4.20;2.85;;;;;;;21.87;91.12;102195.81;5046879;28;20031;-67
2023/08/10 08:45:45;;;;;;;6.10;3.17;;;;;;;22.05;89.33;102191.13;5045580;28;20017;-66
2023/08/10 08:48:14;;;;;;;6.53;3.42;;;;;;;22.28;88.52;102199.59;5045736;28;20017;-62
2023/08/10 08:50:39;;;;;;;6.47;3.80;;;;;;;22.34;85.33;102195.66;5039533;28;20503;-59
2023/08/10 08:53:06;;;;;;;9.45;3.80;;;;;;;22.32;85.46;102193.06;5040254;28;20036;-62
2023/08/10 08:55:32;;;;;;;10.95;4.13;;;;;;;22.30;86.49;102186.91;5048840;28;20530;-66
2023/08/10 08:57:57;;;;;;;5.35;3.50;;;;;;;22.27;87.13;102191.63;5045724;28;20037;-64
2023/08/10 09:00:23;;;;;;;7.90;4.18;;;;;;;22.52;81.47;102188.25;5026110;28;20527;-64
2023/08/10 09:02:50;;;;;;;5.05;3.72;;;;;;;22.75;82.59;102175.19;5025491;28;20040;-66
2023/08/10 09:05:15;;;;;;;8.40;3.85;;;;;;;22.66;82.28;102186.53;5039552;28;20033;-52
2023/08/10 09:07:41;;;;;;;11.00;4.20;;;;;;;22.83;81.74;102180.94;5044967;28;20172;-62
2023/08/10 09:10:06;;;;;;;7.55;4.15;;;;;;;22.81;83.61;102179.28;5033106;28;20021;-64
2023/08/10 09:12:36;;;;;;;7.85;4.65;;;;;;;23.01;81.67;102177.13;5035945;28;20495;-61
2023/08/10 09:15:10;;;;;;;6.00;4.40;;;;;;;23.06;80.71;102180.38;5041781;28;20039;-65
2023/08/10 09:17:43;;;;;;;6.85;4.28;;;;;;;23.18;81.20;102179.53;5043834;28;20033;-63
2023/08/10 09:20:09;;;;;;;6.20;4.20;;;;;;;23.30;77.76;102182.41;5042421;28;20018;-64
2023/08/10 09:22:38;;;;;;;8.50;4.63;;;;;;;23.07;79.29;102179.41;5034720;28;20112;-66
2023/08/10 09:25:05;;;;;;;8.00;3.88;;;;;;;23.07;78.91;102174.03;5027874;28;20116;-60
2023/08/10 09:27:31;;;;;;;10.52;4.60;;;;;;;22.86;81.03;102174.50;5033258;28;20021;-63
2023/08/10 09:29:58;;;;;;;8.40;4.35;;;;;;;22.95;80.67;102176.56;5044058;28;20040;-67
2023/08/10 09:32:24;;;;;;;7.18;4.13;;;;;;;23.02;81.97;102174.34;5038755;28;20131;-66
2023/08/10 09:34:49;;;;;;;7.72;3.47;;;;;;;23.18;82.47;102171.47;5044788;28;20471;-66
2023/08/10 09:37:15;;;;;;;6.18;3.50;;;;;;;23.52;77.55;102175.56;5016728;28;20037;-57
2023/08/10 09:39:41;;;;;;;10.00;4.10;;;;;;;23.39;78.06;102184.47;5061967;28;20109;-67
2023/08/10 09:42:06;;;;;;;6.38;3.58;;;;;;;23.46;78.17;102188.50;5037000;28;20458;-64
2023/08/10 09:44:47;;;;;;;8.60;3.58;;;;;;;23.53;77.20;102188.06;5047480;28;20060;-62
2023/08/10 09:47:14;;;;;;;5.00;3.13;;;;;;;23.63;76.73;102182.91;5045897;28;20041;-65
2023/08/10 09:49:45;;;;;;;7.75;3.58;;;;;;;23.64;75.02;102181.94;5040841;28;20027;-66
2023/08/10 09:52:10;;;;;;;6.88;2.95;;;;;;;23.60;76.91;102184.00;5043218;28;20025;-61
2023/08/10 09:54:37;;;;;;;6.72;3.63;;;;;;;23.68;77.47;102195.09;5039926;28;20028;-66
2023/08/10 09:57:03;;;;;;;4.65;3.08;;;;;;;23.79;75.60;102188.97;5041986;28;20031;-64
2023/08/10 09:59:28;;;;;;;4.88;3.10;;;;;;;23.79;73.98;102194.34;5012786;28;20025;-67
2023/08/10 10:01:54;;;;;;;5.13;3.20;;;;;;;23.56;75.99;102188.72;5040649;28;20014;-57
2023/08/10 10:04:19;;;;;;;6.30;3.25;;;;;;;23.57;77.63;102189.59;5032599;28;20032;-62
2023/08/10 10:06:46;;;;;;;4.22;2.70;;;;;;;23.57;78.57;102193.13;5037727;28;20021;-67
2023/08/10 10:09:12;;;;;;;5.28;3.33;;;;;;;23.94;76.08;102195.13;5034341;28;20095;-66
2023/08/10 10:11:38;;;;;;;6.10;3.42;;;;;;;23.98;76.10;102180.47;5032031;28;20037;-60
2023/08/10 10:14:03;;;;;;;4.10;2.60;;;;;;;23.94;75.83;102178.97;5036120;28;20051;-66
2023/08/10 10:16:31;;;;;;;7.93;3.30;;;;;;;24.20;76.02;102175.44;5033376;28;20017;-63
2023/08/10 10:18:57;;;;;;;5.90;2.92;;;;;;;24.30;76.21;102176.50;5041919;28;20022;-65
2023/08/10 10:21:22;;;;;;;4.75;3.17;;;;;;;24.42;74.51;102184.66;5033872;28;20499;-57
2023/08/10 10:23:48;;;;;;;4.60;3.05;;;;;;;24.71;73.43;102181.69;5028470;28;20025;-66
2023/08/10 10:26:19;;;;;;;5.85;3.40;;;;;;;24.67;73.64;102178.34;5026283;28;20100;-67
2023/08/10 10:29:11;;;;;;;5.95;3.13;;;;;;;24.79;71.95;102179.25;5036973;28;20487;-65
2023/08/10 10:31:37;;;;;;;4.20;3.50;;;;;;;24.63;73.47;102187.63;5043364;28;20079;-65
2023/08/10 10:34:03;;;;;;;5.38;3.45;;;;;;;24.40;76.03;102184.75;5048203;28;20041;-63
2023/08/10 10:36:31;;;;;;;3.53;3.13;;;;;;;24.90;73.73;102175.81;5044342;28;20029;-62
2023/08/10 10:39:07;;;;;;;7.85;3.58;;;;;;;25.07;74.68;102173.69;5039533;28;20116;-65
2023/08/10 10:41:34;;;;;;;4.38;3.30;;;;;;;25.57;71.64;102176.19;5036797;28;20665;-66
2023/08/10 10:44:02;;;;;;;10.25;3.72;;;;;;;25.39;70.79;102181.16;5047204;28;20120;-65
2023/08/10 10:46:38;;;;;;;5.05;3.72;;;;;;;25.48;70.25;102183.16;5049498;28;20284;-67
2023/08/10 10:49:14;;;;;;;6.00;3.20;;;;;;;25.08;74.12;102187.03;5048094;28;20102;-62
2023/08/10 10:51:51;;;;;;;8.77;3.60;;;;;;;25.13;74.22;102184.00;5048706;28;20031;-65
2023/08/10 10:54:17;;;;;;;8.73;3.50;;;;;;;25.32;74.23;102180.78;5045674;28;20032;-62
2023/08/10 10:56:42;;;;;;;7.50;3.65;;;;;;;25.88;69.11;102185.59;5039183;28;20025;-63
2023/08/10 10:59:08;;;;;;;5.25;3.33;;;;;;;25.92;68.04;102182.56;5040768;28;20036;-66
2023/08/10 11:01:33;;;;;;;4.47;2.90;;;;;;;25.88;69.28;102188.31;5043262;28;20294;-66
2023/08/10 11:03:59;;;;;;;6.13;3.60;;;;;;;25.99;68.05;102180.22;5037186;28;20471;-62
2023/08/10 11:06:25;;;;;;;4.60;3.08;;;;;;;25.95;67.47;102179.56;5039196;28;20096;-64
2023/08/10 11:08:55;;;;;;;7.38;2.70;;;;;;;26.55;66.83;102175.78;5037590;28;20041;-64
2023/08/10 11:11:24;;;;;;;4.25;2.80;;;;;;;26.03;71.44;102170.03;5041664;28;20458;-66
2023/08/10 11:13:51;;;;;;;4.68;2.80;;;;;;;26.10;71.17;102165.84;5037443;28;20380;-64
2023/08/10 11:16:17;;;;;;;6.55;3.53;;;;;;;26.31;67.53;102170.53;5036922;28;20113;-66